Time;durP1;ratioP1;P1;durP2;ratioP2;P2;SDS_P1;SDS_P2;PMS_P1;PMS_P2;Temp;Humidity;BMP_temperature;BMP_pressure;BME280_temperature;BME280_humidity;BME280_pressure;Samples;Min_cycle;Max_cycle;Signal;HPM_P1;HPM_P2
2024/01/27 00:01:10;;;;;;;1.73;0.73;;;;;;;;;;5007073;28;20037;-61
2024/01/27 00:03:36;;;;;;;1.73;0.98;;;;;;;;;;5007752;28;20704;-62
2024/01/27 00:06:02;;;;;;;1.40;0.70;;;;;;;;;;5007488;28;20041;-61
2024/01/27 00:08:27;;;;;;;2.03;0.70;;;;;;;;;;5007652;28;20519;-61
2024/01/27 00:10:52;;;;;;;1.67;0.80;;;;;;;;;;5006875;28;20038;-61
2024/01/27 00:13:18;;;;;;;2.13;0.93;;;;;;;;;;5005370;28;20037;-61
2024/01/27 00:15:43;;;;;;;1.52;0.60;;;;;;;;;;5001552;28;20052;-61
2024/01/27 00:18:08;;;;;;;2.08;1.00;;;;;;;;;;5007012;28;20464;-61
2024/01/27 00:20:34;;;;;;;2.03;0.90;;;;;;;;;;5021656;28;20052;-62
2024/01/27 00:22:59;;;;;;;2.72;0.90;;;;;;;;;;5008547;28;20045;-62
2024/01/27 00:25:24;;;;;;;1.80;0.85;;;;;;;;;;5025956;28;20057;-61
2024/01/27 00:27:49;;;;;;;1.52;0.88;;;;;;;;;;5007000;28;20030;-60
2024/01/27 00:30:15;;;;;;;1.40;0.75;;;;;;;;;;5007142;28;20037;-61
2024/01/27 00:32:40;;;;;;;1.95;0.80;;;;;;;;;;5006278;28;20029;-61
2024/01/27 00:35:07;;;;;;;2.10;1.00;;;;;;;;;;5021246;28;20048;-61
2024/01/27 00:37:32;;;;;;;2.22;0.90;;;;;;;;;;5006650;28;20034;-61
2024/01/27 00:39:57;;;;;;;2.22;0.90;;;;;;;;;;5006988;28;20120;-62
2024/01/27 00:42:24;;;;;;;2.55;0.98;;;;;;;;;;5006900;28;20893;-63
2024/01/27 00:44:50;;;;;;;2.28;0.80;;;;;;;;;;4993787;28;20050;-62
2024/01/27 00:47:15;;;;;;;3.63;0.73;;;;;;;;;;5006878;28;20053;-61
2024/01/27 00:49:40;;;;;;;1.67;0.70;;;;;;;;;;5005597;28;20046;-61
2024/01/27 00:52:05;;;;;;;2.22;0.95;;;;;;;;;;5003639;28;20060;-62
2024/01/27 00:54:31;;;;;;;1.80;0.98;;;;;;;;;;5006742;28;20099;-59
2024/01/27 00:56:56;;;;;;;1.50;0.68;;;;;;;;;;5006370;28;20423;-60
2024/01/27 00:59:21;;;;;;;1.90;0.73;;;;;;;;;;5004903;28;20037;-63
2024/01/27 01:01:47;;;;;;;1.65;0.70;;;;;;;;;;5006787;28;20042;-60
2024/01/27 01:04:12;;;;;;;1.60;0.80;;;;;;;;;;5013192;28;20064;-60
2024/01/27 01:06:39;;;;;;;1.58;0.70;;;;;;;;;;5005324;28;20048;-60
2024/01/27 01:09:04;;;;;;;1.38;0.88;;;;;;;;;;5006238;28;20042;-61
2024/01/27 01:11:29;;;;;;;2.00;0.70;;;;;;;;;;5006547;28;20080;-61
2024/01/27 01:13:55;;;;;;;1.67;0.90;;;;;;;;;;5006073;28;20464;-62
2024/01/27 01:16:20;;;;;;;1.80;0.80;;;;;;;;;;5012902;28;20041;-61
2024/01/27 01:18:45;;;;;;;1.65;0.82;;;;;;;;;;5002820;28;20038;-61
2024/01/27 01:21:10;;;;;;;1.90;0.80;;;;;;;;;;4993349;28;20037;-62
2024/01/27 01:23:36;;;;;;;1.15;0.50;;;;;;;;;;4990841;28;20041;-61
2024/01/27 01:26:01;;;;;;;2.22;0.90;;;;;;;;;;5002953;28;20429;-61
2024/01/27 01:28:26;;;;;;;1.15;0.50;;;;;;;;;;5012590;28;20033;-62
2024/01/27 01:30:52;;;;;;;1.80;0.63;;;;;;;;;;5012928;28;20034;-60
2024/01/27 01:33:17;;;;;;;1.63;0.80;;;;;;;;;;5012948;28;20036;-62
2024/01/27 01:35:42;;;;;;;1.27;0.65;;;;;;;;;;5012883;28;20578;-62
2024/01/27 01:38:08;;;;;;;2.17;1.00;;;;;;;;;;5013207;28;20034;-61
2024/01/27 01:40:33;;;;;;;1.90;0.80;;;;;;;;;;5000337;28;20524;-63
2024/01/27 01:42:58;;;;;;;1.42;0.80;;;;;;;;;;4997523;28;20041;-63
2024/01/27 01:45:24;;;;;;;1.60;0.80;;;;;;;;;;4993719;28;20041;-61
2024/01/27 01:47:49;;;;;;;1.77;0.80;;;;;;;;;;5008010;28;20050;-61
2024/01/27 01:50:14;;;;;;;2.35;1.00;;;;;;;;;;5013112;28;20022;-61
2024/01/27 01:52:40;;;;;;;1.75;0.75;;;;;;;;;;5009142;28;20057;-62
2024/01/27 01:55:05;;;;;;;2.15;0.90;;;;;;;;;;5017761;28;20535;-61
2024/01/27 01:57:31;;;;;;;2.08;0.88;;;;;;;;;;5015976;28;20132;-62
2024/01/27 01:59:56;;;;;;;2.35;0.80;;;;;;;;;;5012868;28;20030;-60
2024/01/27 02:02:22;;;;;;;2.45;0.77;;;;;;;;;;5013192;28;20034;-61
2024/01/27 02:04:47;;;;;;;2.25;0.90;;;;;;;;;;5013753;28;20084;-62
2024/01/27 02:07:12;;;;;;;1.40;0.70;;;;;;;;;;5012736;28;20034;-61
2024/01/27 02:09:38;;;;;;;2.03;0.98;;;;;;;;;;5018196;28;20618;-61
2024/01/27 02:12:03;;;;;;;1.70;0.90;;;;;;;;;;5013076;28;20126;-61
2024/01/27 02:14:29;;;;;;;2.35;0.77;;;;;;;;;;5012649;28;20056;-62
2024/01/27 02:16:54;;;;;;;1.48;0.68;;;;;;;;;;5020271;28;20174;-61
2024/01/27 02:19:19;;;;;;;1.92;0.80;;;;;;;;;;5003199;28;20041;-63
2024/01/27 02:21:45;;;;;;;1.58;0.70;;;;;;;;;;4994478;28;20043;-62
2024/01/27 02:24:10;;;;;;;2.03;0.70;;;;;;;;;;4992688;28;20046;-60
2024/01/27 02:26:35;;;;;;;1.92;0.88;;;;;;;;;;4992585;28;20125;-60
2024/01/27 02:29:01;;;;;;;1.95;0.70;;;;;;;;;;5008542;28;20041;-61
2024/01/27 02:31:26;;;;;;;1.40;0.80;;;;;;;;;;5003164;28;20117;-62
2024/01/27 02:33:52;;;;;;;1.23;0.60;;;;;;;;;;5008260;28;20457;-63
2024/01/27 02:36:17;;;;;;;2.20;0.93;;;;;;;;;;5009845;28;20482;-61
2024/01/27 02:38:42;;;;;;;2.15;0.80;;;;;;;;;;4998716;28;20479;-60
2024/01/27 02:41:09;;;;;;;1.52;0.80;;;;;;;;;;4989226;28;20424;-61
2024/01/27 02:43:35;;;;;;;1.60;0.70;;;;;;;;;;5001062;28;20038;-61
2024/01/27 02:46:01;;;;;;;1.70;0.80;;;;;;;;;;5009244;28;20052;-60
2024/01/27 02:48:26;;;;;;;2.08;0.80;;;;;;;;;;5009257;28;20155;-60
2024/01/27 02:50:51;;;;;;;2.05;0.82;;;;;;;;;;5004133;28;20130;-60
2024/01/27 02:53:16;;;;;;;1.75;0.70;;;;;;;;;;5010214;28;20037;-61
2024/01/27 02:55:42;;;;;;;1.38;0.82;;;;;;;;;;5012450;28;20472;-60
2024/01/27 02:58:07;;;;;;;1.45;0.70;;;;;;;;;;5010480;28;20038;-60
2024/01/27 03:00:32;;;;;;;1.30;0.73;;;;;;;;;;5009785;28;20113;-60
2024/01/27 03:02:58;;;;;;;1.55;0.80;;;;;;;;;;5013009;28;20061;-61
2024/01/27 03:05:24;;;;;;;1.67;0.80;;;;;;;;;;5023047;28;20087;-62
2024/01/27 03:07:49;;;;;;;2.03;0.70;;;;;;;;;;5023807;28;20038;-61
2024/01/27 03:10:14;;;;;;;1.85;0.80;;;;;;;;;;5009688;28;20034;-61
2024/01/27 03:12:40;;;;;;;1.83;0.80;;;;;;;;;;5009866;28;20125;-60
2024/01/27 03:15:05;;;;;;;1.75;0.95;;;;;;;;;;5024481;28;20115;-61
2024/01/27 03:17:30;;;;;;;1.05;0.63;;;;;;;;;;5024091;28;20038;-61
2024/01/27 03:19:56;;;;;;;1.90;0.80;;;;;;;;;;5009168;28;20057;-62
2024/01/27 03:22:21;;;;;;;1.33;0.60;;;;;;;;;;5009336;28;20084;-60
2024/01/27 03:24:46;;;;;;;2.05;0.80;;;;;;;;;;5009476;28;20030;-61
2024/01/27 03:27:11;;;;;;;1.67;1.05;;;;;;;;;;5009271;28;20044;-59
2024/01/27 03:29:37;;;;;;;1.67;0.90;;;;;;;;;;5009647;28;20053;-60
2024/01/27 03:32:02;;;;;;;1.42;0.70;;;;;;;;;;5009533;28;20041;-60
2024/01/27 03:34:28;;;;;;;1.45;0.80;;;;;;;;;;5009334;28;20462;-61
2024/01/27 03:36:53;;;;;;;1.48;0.80;;;;;;;;;;5009444;28;20194;-60
2024/01/27 03:39:18;;;;;;;1.20;0.60;;;;;;;;;;5002045;28;20042;-61
2024/01/27 03:41:44;;;;;;;1.58;0.80;;;;;;;;;;5008750;28;20122;-61
2024/01/27 03:44:09;;;;;;;1.20;0.70;;;;;;;;;;5009517;28;20084;-62
2024/01/27 03:46:35;;;;;;;1.77;0.80;;;;;;;;;;5016781;28;20037;-61
2024/01/27 03:49:00;;;;;;;1.35;0.60;;;;;;;;;;5012105;28;20124;-61
2024/01/27 03:51:26;;;;;;;1.98;0.80;;;;;;;;;;5003310;28;20546;-61
2024/01/27 03:53:51;;;;;;;1.23;0.60;;;;;;;;;;5015855;28;20086;-63
2024/01/27 03:56:16;;;;;;;1.85;0.82;;;;;;;;;;5007890;28;20104;-62
2024/01/27 03:58:41;;;;;;;1.23;0.70;;;;;;;;;;5004960;28;20026;-62
2024/01/27 04:01:07;;;;;;;1.50;0.60;;;;;;;;;;5007595;28;20148;-62
2024/01/27 04:03:32;;;;;;;1.48;0.80;;;;;;;;;;5005734;28;20197;-62
2024/01/27 04:05:57;;;;;;;1.70;0.68;;;;;;;;;;5001193;28;20038;-62
2024/01/27 04:08:23;;;;;;;1.75;0.77;;;;;;;;;;4992133;28;20116;-62
2024/01/27 04:10:48;;;;;;;2.67;0.93;;;;;;;;;;4990891;28;20451;-64
2024/01/27 04:13:13;;;;;;;0.90;0.60;;;;;;;;;;5009831;28;20039;-62
2024/01/27 04:15:39;;;;;;;1.55;0.77;;;;;;;;;;4995603;28;20038;-61
2024/01/27 04:18:05;;;;;;;1.38;0.60;;;;;;;;;;5010272;28;20453;-61
2024/01/27 04:20:30;;;;;;;1.02;0.60;;;;;;;;;;5008170;28;20574;-62
2024/01/27 04:22:56;;;;;;;1.38;0.70;;;;;;;;;;5022207;28;20064;-63
2024/01/27 04:25:21;;;;;;;1.42;0.80;;;;;;;;;;5007193;28;20121;-63
2024/01/27 04:27:46;;;;;;;1.63;0.60;;;;;;;;;;5007237;28;20044;-63
2024/01/27 04:30:12;;;;;;;1.42;0.80;;;;;;;;;;5006757;28;20087;-62
2024/01/27 04:32:38;;;;;;;1.55;0.73;;;;;;;;;;5012393;28;20034;-62
2024/01/27 04:35:04;;;;;;;1.55;0.80;;;;;;;;;;5008449;28;20064;-63
2024/01/27 04:37:29;;;;;;;1.70;0.73;;;;;;;;;;5011963;28;20528;-61
2024/01/27 04:39:54;;;;;;;1.48;0.80;;;;;;;;;;5007357;28;20068;-61
2024/01/27 04:42:20;;;;;;;1.77;0.80;;;;;;;;;;5009287;28;20837;-61
2024/01/27 04:44:45;;;;;;;1.40;0.77;;;;;;;;;;5010363;28;20069;-61
2024/01/27 04:47:10;;;;;;;0.88;0.55;;;;;;;;;;5012244;28;20053;-61
2024/01/27 04:49:35;;;;;;;1.50;0.70;;;;;;;;;;5006547;28;20176;-62
2024/01/27 04:52:01;;;;;;;1.50;0.60;;;;;;;;;;5005056;28;20034;-63
2024/01/27 04:54:26;;;;;;;1.40;0.60;;;;;;;;;;5006825;28;20046;-62
2024/01/27 04:56:52;;;;;;;1.52;0.70;;;;;;;;;;5013012;28;20038;-62
2024/01/27 04:59:17;;;;;;;1.60;0.68;;;;;;;;;;4992746;28;20041;-62
2024/01/27 05:01:45;;;;;;;1.48;0.52;;;;;;;;;;5003263;28;20033;-63
2024/01/27 05:04:11;;;;;;;1.40;0.70;;;;;;;;;;5008196;28;20124;-62
2024/01/27 05:06:38;;;;;;;1.10;0.57;;;;;;;;;;5006054;28;20124;-62
2024/01/27 05:09:04;;;;;;;1.50;0.63;;;;;;;;;;5006499;28;20038;-62
2024/01/27 05:11:31;;;;;;;2.50;0.90;;;;;;;;;;5006940;28;20385;-63
2024/01/27 05:13:56;;;;;;;1.15;0.68;;;;;;;;;;5005693;28;20674;-61
2024/01/27 05:16:21;;;;;;;1.45;0.50;;;;;;;;;;5006724;28;20105;-61
2024/01/27 05:18:47;;;;;;;1.10;0.50;;;;;;;;;;5007036;28;20042;-62
2024/01/27 05:21:12;;;;;;;1.05;0.40;;;;;;;;;;5006079;28;20695;-61
2024/01/27 05:23:37;;;;;;;1.50;0.70;;;;;;;;;;5006940;28;20033;-61
2024/01/27 05:26:05;;;;;;;1.30;0.70;;;;;;;;;;5006659;28;20057;-62
2024/01/27 05:28:31;;;;;;;1.50;0.70;;;;;;;;;;5006618;28;20026;-62
2024/01/27 05:30:57;;;;;;;0.98;0.50;;;;;;;;;;5006146;28;20431;-61
2024/01/27 05:33:22;;;;;;;1.45;0.60;;;;;;;;;;5011451;28;20038;-61
2024/01/27 05:35:47;;;;;;;1.77;0.50;;;;;;;;;;5006399;28;20042;-63
2024/01/27 05:38:12;;;;;;;2.05;0.80;;;;;;;;;;4997680;28;20133;-61
2024/01/27 05:40:38;;;;;;;1.02;0.60;;;;;;;;;;5006708;28;20038;-62
2024/01/27 05:43:03;;;;;;;1.05;0.50;;;;;;;;;;5005824;28;20045;-62
2024/01/27 05:45:31;;;;;;;4.03;0.68;;;;;;;;;;5006847;28;20111;-62
2024/01/27 05:47:56;;;;;;;5.32;1.00;;;;;;;;;;5019290;28;20057;-62
2024/01/27 05:50:21;;;;;;;4.40;0.77;;;;;;;;;;5003166;28;20123;-61
2024/01/27 05:52:47;;;;;;;3.75;0.80;;;;;;;;;;5001030;28;20096;-63
2024/01/27 05:55:12;;;;;;;2.55;0.60;;;;;;;;;;5002160;28;20084;-61
2024/01/27 05:57:38;;;;;;;3.90;0.70;;;;;;;;;;5005851;28;20511;-61
2024/01/27 06:00:03;;;;;;;2.97;0.73;;;;;;;;;;5004644;28;20629;-62
2024/01/27 06:05:12;;;;;;;3.03;0.70;;;;;;;;;;5007972;28;20060;-60
2024/01/27 06:07:39;;;;;;;2.85;0.93;;;;;;;;;;5017734;28;20025;-61
2024/01/27 06:10:04;;;;;;;3.45;0.85;;;;;;;;;;4991181;28;20046;-62
2024/01/27 06:12:29;;;;;;;2.85;0.73;;;;;;;;;;5006442;28;20365;-62
2024/01/27 06:14:57;;;;;;;2.47;0.73;;;;;;;;;;5010104;28;20112;-61
2024/01/27 06:17:22;;;;;;;3.45;0.73;;;;;;;;;;5021401;28;20096;-64
2024/01/27 06:19:48;;;;;;;2.15;0.70;;;;;;;;;;5018782;28;20560;-62
2024/01/27 06:22:13;;;;;;;2.83;0.82;;;;;;;;;;5008747;28;20029;-64
2024/01/27 06:24:42;;;;;;;2.22;0.80;;;;;;;;;;5008182;28;20381;-62
2024/01/27 06:27:07;;;;;;;1.70;0.73;;;;;;;;;;5007148;28;20021;-62
2024/01/27 06:29:33;;;;;;;2.63;0.90;;;;;;;;;;5008833;28;20099;-64
2024/01/27 06:31:58;;;;;;;2.63;1.00;;;;;;;;;;5008790;28;20571;-62
2024/01/27 06:34:23;;;;;;;1.92;0.65;;;;;;;;;;5008373;28;20073;-61
2024/01/27 06:36:49;;;;;;;1.70;0.63;;;;;;;;;;4990735;28;20067;-59
2024/01/27 06:39:14;;;;;;;2.78;0.60;;;;;;;;;;4999863;28;20405;-55
2024/01/27 06:41:39;;;;;;;1.98;0.73;;;;;;;;;;4992337;28;20014;-62
2024/01/27 06:44:05;;;;;;;1.52;0.68;;;;;;;;;;4989069;28;20109;-60
2024/01/27 06:46:30;;;;;;;1.20;0.63;;;;;;;;;;4995405;28;20030;-61
2024/01/27 06:48:55;;;;;;;1.90;0.70;;;;;;;;;;4992516;28;20488;-59
2024/01/27 06:51:20;;;;;;;2.28;0.70;;;;;;;;;;4995111;28;20173;-58
2024/01/27 06:53:48;;;;;;;2.03;0.82;;;;;;;;;;5000854;28;20081;-58
2024/01/27 06:56:13;;;;;;;3.00;0.60;;;;;;;;;;4994880;28;20042;-59
2024/01/27 06:58:38;;;;;;;1.27;0.70;;;;;;;;;;4994331;28;20068;-60
2024/01/27 07:01:03;;;;;;;2.03;0.82;;;;;;;;;;4993705;28;20057;-58
2024/01/27 07:03:29;;;;;;;1.77;0.70;;;;;;;;;;4987871;28;20056;-58
2024/01/27 07:05:54;;;;;;;2.25;0.85;;;;;;;;;;5032961;28;20111;-60
2024/01/27 07:08:19;;;;;;;2.10;0.75;;;;;;;;;;5010182;28;20676;-58
2024/01/27 07:10:45;;;;;;;1.33;0.60;;;;;;;;;;5003261;28;20054;-59
2024/01/27 07:13:11;;;;;;;1.65;0.60;;;;;;;;;;5004584;28;20057;-60
2024/01/27 07:15:37;;;;;;;1.17;0.52;;;;;;;;;;5008178;28;20048;-59
2024/01/27 07:18:02;;;;;;;1.45;0.50;;;;;;;;;;5011552;28;20029;-57
2024/01/27 07:20:29;;;;;;;1.00;0.50;;;;;;;;;;4992566;28;20036;-59
2024/01/27 07:22:54;;;;;;;1.67;0.60;;;;;;;;;;5010344;28;20041;-59
2024/01/27 07:25:19;;;;;;;1.55;0.60;;;;;;;;;;4999270;28;20432;-58
2024/01/27 07:27:46;;;;;;;1.08;0.45;;;;;;;;;;5006019;28;20037;-58
2024/01/27 07:30:11;;;;;;;2.20;0.55;;;;;;;;;;5008140;28;20117;-58
2024/01/27 07:32:36;;;;;;;1.75;0.70;;;;;;;;;;4997438;28;20049;-57
2024/01/27 07:35:02;;;;;;;3.15;0.75;;;;;;;;;;5001494;28;20504;-57
2024/01/27 07:37:27;;;;;;;2.22;0.60;;;;;;;;;;5000368;28;20400;-58
2024/01/27 07:39:52;;;;;;;1.60;0.40;;;;;;;;;;4994333;28;20525;-58
2024/01/27 07:42:17;;;;;;;1.80;0.60;;;;;;;;;;4997861;28;20065;-58
2024/01/27 07:44:43;;;;;;;2.85;0.65;;;;;;;;;;4995752;28;20042;-57
2024/01/27 07:47:08;;;;;;;1.33;0.57;;;;;;;;;;5008677;28;20113;-57
2024/01/27 07:49:34;;;;;;;1.75;0.77;;;;;;;;;;5013094;28;20038;-57
2024/01/27 07:51:59;;;;;;;1.88;0.50;;;;;;;;;;4997960;28;20042;-57
2024/01/27 07:54:24;;;;;;;1.23;0.65;;;;;;;;;;4997876;28;20077;-58
2024/01/27 07:56:49;;;;;;;1.65;0.50;;;;;;;;;;5002063;28;20472;-58
2024/01/27 07:59:15;;;;;;;2.13;0.65;;;;;;;;;;4999938;28;20041;-58
2024/01/27 08:01:40;;;;;;;1.55;0.50;;;;;;;;;;4999958;28;20173;-58
2024/01/27 08:04:06;;;;;;;3.47;0.70;;;;;;;;;;5001245;28;20156;-58
2024/01/27 08:06:31;;;;;;;1.10;0.60;;;;;;;;;;5003577;28;20105;-58
2024/01/27 08:08:56;;;;;;;1.25;0.50;;;;;;;;;;5011121;28;20072;-57
2024/01/27 08:11:22;;;;;;;0.90;0.40;;;;;;;;;;5005747;28;20038;-57
2024/01/27 08:13:48;;;;;;;1.58;0.32;;;;;;;;;;5007317;28;20106;-57
2024/01/27 08:16:14;;;;;;;1.17;0.50;;;;;;;;;;5006413;28;20042;-58
2024/01/27 08:18:39;;;;;;;1.05;0.50;;;;;;;;;;5005210;28;20105;-58
2024/01/27 08:21:04;;;;;;;1.13;0.50;;;;;;;;;;5001265;28;20042;-58
2024/01/27 08:23:30;;;;;;;2.72;1.20;;;;;;;;;;4995258;28;20128;-57
2024/01/27 08:25:55;;;;;;;2.03;0.60;;;;;;;;;;4991624;28;20035;-58
2024/01/27 08:28:20;;;;;;;1.85;0.80;;;;;;;;;;4993978;28;20061;-59
2024/01/27 08:30:46;;;;;;;2.00;0.60;;;;;;;;;;4995768;28;20037;-58
2024/01/27 08:33:11;;;;;;;2.03;0.65;;;;;;;;;;4994765;28;20029;-59
2024/01/27 08:35:36;;;;;;;1.25;0.50;;;;;;;;;;4994195;28;20073;-58
2024/01/27 08:38:03;;;;;;;1.50;0.60;;;;;;;;;;4999561;28;20034;-57
2024/01/27 08:40:28;;;;;;;2.22;0.60;;;;;;;;;;4998683;28;20038;-57
2024/01/27 08:42:54;;;;;;;1.23;0.57;;;;;;;;;;4991448;28;20046;-58
2024/01/27 08:45:19;;;;;;;1.02;0.60;;;;;;;;;;4997278;28;20544;-58
2024/01/27 08:47:45;;;;;;;1.40;0.55;;;;;;;;;;5007113;28;20052;-58
2024/01/27 08:50:11;;;;;;;1.48;0.70;;;;;;;;;;4999165;28;20038;-57
2024/01/27 08:52:36;;;;;;;1.02;0.60;;;;;;;;;;5003655;28;20507;-58
2024/01/27 08:55:01;;;;;;;1.05;0.50;;;;;;;;;;5000400;28;20081;-57
2024/01/27 08:57:27;;;;;;;1.40;0.47;;;;;;;;;;4996501;28;20500;-58
2024/01/27 08:59:52;;;;;;;1.85;0.47;;;;;;;;;;4995984;28;20034;-59
2024/01/27 09:02:17;;;;;;;1.98;0.60;;;;;;;;;;4992955;28;20523;-58
2024/01/27 09:04:43;;;;;;;1.02;0.60;;;;;;;;;;4993334;28;20453;-58
2024/01/27 09:07:08;;;;;;;1.30;0.60;;;;;;;;;;4994166;28;20041;-58
2024/01/27 09:09:33;;;;;;;1.55;0.68;;;;;;;;;;4988080;28;20488;-58
2024/01/27 09:11:59;;;;;;;1.58;0.60;;;;;;;;;;4996518;28;20046;-59
2024/01/27 09:14:24;;;;;;;1.42;0.60;;;;;;;;;;4987470;28;20052;-58
2024/01/27 09:16:52;;;;;;;0.98;0.60;;;;;;;;;;5002392;28;20034;-59
2024/01/27 09:19:17;;;;;;;1.20;0.55;;;;;;;;;;4988777;28;20065;-58
2024/01/27 09:21:42;;;;;;;1.35;0.77;;;;;;;;;;4988649;28;22343;-59
2024/01/27 09:24:08;;;;;;;1.13;0.43;;;;;;;;;;4992988;28;20034;-59
2024/01/27 09:26:33;;;;;;;2.55;1.00;;;;;;;;;;5011021;28;20043;-59
2024/01/27 09:28:58;;;;;;;1.83;0.60;;;;;;;;;;4989535;28;20101;-58
2024/01/27 09:31:25;;;;;;;1.30;0.60;;;;;;;;;;4994055;28;20042;-59
2024/01/27 09:33:53;;;;;;;3.05;0.57;;;;;;;;;;4990879;28;20049;-61
2024/01/27 09:36:18;;;;;;;1.40;0.60;;;;;;;;;;4996093;28;20049;-58
2024/01/27 09:38:44;;;;;;;1.52;0.52;;;;;;;;;;5004317;28;20026;-58
2024/01/27 09:41:10;;;;;;;1.38;0.60;;;;;;;;;;5004766;28;20595;-58
2024/01/27 09:43:35;;;;;;;1.30;0.43;;;;;;;;;;5015406;28;20034;-58
2024/01/27 09:46:02;;;;;;;1.83;0.57;;;;;;;;;;4997146;28;20042;-58
2024/01/27 09:48:27;;;;;;;1.60;0.70;;;;;;;;;;5002495;28;20050;-57
2024/01/27 09:50:53;;;;;;;3.88;0.73;;;;;;;;;;5016932;28;20073;-58
2024/01/27 09:53:18;;;;;;;2.10;0.98;;;;;;;;;;4999015;28;20522;-59
2024/01/27 09:55:44;;;;;;;2.88;0.90;;;;;;;;;;4993084;28;20042;-58
2024/01/27 09:58:09;;;;;;;2.55;0.90;;;;;;;;;;4995116;28;20499;-57
2024/01/27 10:00:36;;;;;;;3.78;1.00;;;;;;;;;;5005994;28;20046;-58
2024/01/27 10:03:01;;;;;;;2.75;1.00;;;;;;;;;;5000036;28;20394;-58
2024/01/27 10:05:26;;;;;;;1.90;0.80;;;;;;;;;;5006714;28;20141;-59
2024/01/27 10:07:51;;;;;;;1.88;0.85;;;;;;;;;;5026361;28;20069;-58
2024/01/27 10:10:17;;;;;;;2.42;0.70;;;;;;;;;;5013289;28;20121;-58
2024/01/27 10:12:42;;;;;;;2.85;0.90;;;;;;;;;;5007362;28;20418;-58
2024/01/27 10:15:28;;;;;;;1.67;0.70;;;;;;;;;;5009052;28;20416;-58
2024/01/27 10:18:03;;;;;;;3.00;1.05;;;;;;;;;;5014006;28;20104;-59
2024/01/27 10:20:29;;;;;;;1.70;0.80;;;;;;;;;;5013437;28;20034;-57
2024/01/27 10:22:54;;;;;;;2.60;0.90;;;;;;;;;;5012869;28;20040;-59
2024/01/27 10:25:19;;;;;;;2.50;0.80;;;;;;;;;;5006413;28;20049;-59
2024/01/27 10:27:45;;;;;;;2.38;0.70;;;;;;;;;;5008915;28;20609;-59
2024/01/27 10:30:19;;;;;;;4.70;1.10;;;;;;;;;;5012593;28;20141;-57
2024/01/27 10:32:54;;;;;;;1.80;0.80;;;;;;;;;;5000320;28;20049;-57
2024/01/27 10:35:19;;;;;;;2.25;1.20;;;;;;;;;;5006118;28;20046;-58
2024/01/27 10:37:45;;;;;;;3.00;0.95;;;;;;;;;;5006116;28;20038;-58
2024/01/27 10:40:12;;;;;;;2.08;0.80;;;;;;;;;;5013791;28;20132;-59
2024/01/27 10:42:38;;;;;;;2.08;1.05;;;;;;;;;;5012129;28;20061;-57
2024/01/27 10:45:03;;;;;;;2.40;0.82;;;;;;;;;;5005848;28;20461;-57
2024/01/27 10:47:29;;;;;;;2.90;1.13;;;;;;;;;;4996231;28;20489;-57
2024/01/27 10:49:58;;;;;;;2.78;1.00;;;;;;;;;;4996164;28;20041;-59
2024/01/27 10:52:28;;;;;;;3.03;0.85;;;;;;;;;;4998595;28;20026;-59
2024/01/27 10:54:53;;;;;;;2.78;1.00;;;;;;;;;;5010078;28;20045;-58
2024/01/27 10:57:18;;;;;;;4.07;1.15;;;;;;;;;;5011020;28;20106;-58
2024/01/27 10:59:43;;;;;;;1.63;0.80;;;;;;;;;;5009977;28;20147;-58
2024/01/27 11:02:09;;;;;;;2.15;0.88;;;;;;;;;;5018224;28;21431;-58
2024/01/27 11:04:36;;;;;;;2.63;0.90;;;;;;;;;;4986654;28;20030;-58
2024/01/27 11:07:01;;;;;;;4.25;1.00;;;;;;;;;;5008257;28;20502;-57
2024/01/27 11:09:27;;;;;;;1.83;0.88;;;;;;;;;;5015436;28;20061;-58
2024/01/27 11:11:52;;;;;;;1.48;0.90;;;;;;;;;;5012004;28;20124;-57
2024/01/27 11:14:17;;;;;;;3.95;0.98;;;;;;;;;;5008893;28;20042;-57
2024/01/27 11:16:47;;;;;;;1.67;0.80;;;;;;;;;;5013386;28;20077;-58
2024/01/27 11:19:12;;;;;;;1.75;0.90;;;;;;;;;;5009927;28;20064;-58
2024/01/27 11:21:37;;;;;;;3.33;1.00;;;;;;;;;;5008840;28;20058;-57
2024/01/27 11:24:15;;;;;;;2.90;0.90;;;;;;;;;;5007898;28;20057;-58
2024/01/27 11:26:42;;;;;;;2.85;0.95;;;;;;;;;;5004087;28;20392;-58
2024/01/27 11:29:09;;;;;;;2.15;0.90;;;;;;;;;;5007039;28;20137;-58
2024/01/27 11:31:34;;;;;;;3.35;1.02;;;;;;;;;;5009538;28;20033;-58
2024/01/27 11:34:00;;;;;;;2.20;1.00;;;;;;;;;;5009218;28;20131;-57
2024/01/27 11:36:26;;;;;;;2.55;0.90;;;;;;;;;;5005291;28;20500;-58
2024/01/27 11:38:52;;;;;;;2.33;0.90;;;;;;;;;;5011828;28;20537;-58
2024/01/27 11:41:24;;;;;;;2.33;0.90;;;;;;;;;;5007518;28;20114;-58
2024/01/27 11:43:55;;;;;;;3.85;1.40;;;;;;;;;;5011851;28;20415;-58
2024/01/27 11:46:21;;;;;;;2.08;0.90;;;;;;;;;;5014884;28;20116;-58
2024/01/27 11:48:46;;;;;;;1.95;0.88;;;;;;;;;;5008405;28;20491;-58
2024/01/27 11:51:11;;;;;;;1.52;0.60;;;;;;;;;;5004079;28;20038;-58
2024/01/27 11:53:37;;;;;;;2.80;1.15;;;;;;;;;;5017483;28;20033;-57
2024/01/27 11:56:03;;;;;;;2.13;0.88;;;;;;;;;;5011225;28;20109;-57
2024/01/27 11:58:30;;;;;;;2.20;0.77;;;;;;;;;;5009188;28;20045;-59
2024/01/27 12:00:55;;;;;;;1.90;0.77;;;;;;;;;;5008895;28;20041;-59
2024/01/27 12:03:20;;;;;;;2.90;1.05;;;;;;;;;;5014799;28;20115;-59
2024/01/27 12:05:46;;;;;;;1.65;0.90;;;;;;;;;;5003496;28;20053;-58
2024/01/27 12:08:11;;;;;;;2.10;0.80;;;;;;;;;;5008607;28;20030;-60
2024/01/27 12:10:36;;;;;;;1.23;0.70;;;;;;;;;;5010260;28;20524;-57
2024/01/27 12:13:02;;;;;;;2.08;0.90;;;;;;;;;;5013494;28;20038;-57
2024/01/27 12:15:28;;;;;;;1.23;0.60;;;;;;;;;;5008020;28;20046;-57
2024/01/27 12:17:53;;;;;;;1.92;0.80;;;;;;;;;;5004349;28;20076;-59
2024/01/27 12:20:18;;;;;;;2.15;0.82;;;;;;;;;;4994347;28;20034;-59
2024/01/27 12:22:43;;;;;;;1.08;0.60;;;;;;;;;;5004837;28;20487;-58
2024/01/27 12:25:09;;;;;;;2.13;0.70;;;;;;;;;;5012400;28;20058;-58
2024/01/27 12:27:35;;;;;;;1.95;0.73;;;;;;;;;;5005455;28;20062;-60
2024/01/27 12:30:00;;;;;;;1.30;0.77;;;;;;;;;;5003392;28;20041;-58
2024/01/27 12:32:26;;;;;;;2.05;0.85;;;;;;;;;;5015819;28;20088;-59
2024/01/27 12:34:51;;;;;;;2.90;1.00;;;;;;;;;;4993213;28;20084;-59
2024/01/27 12:37:16;;;;;;;1.83;0.63;;;;;;;;;;4986736;28;20539;-58
2024/01/27 12:39:45;;;;;;;1.30;0.80;;;;;;;;;;4991957;28;20034;-58
2024/01/27 12:42:13;;;;;;;1.92;0.68;;;;;;;;;;4996939;28;20186;-58
2024/01/27 12:44:41;;;;;;;1.83;1.00;;;;;;;;;;4992669;28;20058;-59
2024/01/27 12:47:06;;;;;;;1.35;0.68;;;;;;;;;;4993828;28;20048;-58
2024/01/27 13:28:34;;;;;;;1.67;0.60;;;;;;;;;;5053309;22;20067;-57
2024/01/27 13:30:59;;;;;;;2.35;0.80;;;;;;;;;;5024622;28;20128;-55
2024/01/27 13:33:25;;;;;;;1.98;0.60;;;;;;;;;;5032862;28;20056;-55
2024/01/27 13:35:51;;;;;;;1.58;0.70;;;;;;;;;;5030589;28;20485;-55
2024/01/27 13:38:23;;;;;;;1.13;0.70;;;;;;;;;;5031289;28;20132;-55
2024/01/27 13:40:48;;;;;;;1.63;0.73;;;;;;;;;;5030414;28;20041;-55
2024/01/27 13:43:14;;;;;;;1.85;0.80;;;;;;;;;;5032885;28;20099;-56
2024/01/27 13:45:39;;;;;;;1.77;0.60;;;;;;;;;;5031575;28;20060;-56
2024/01/27 13:48:05;;;;;;;2.08;0.77;;;;;;;;;;5030300;28;20119;-56
2024/01/27 13:50:31;;;;;;;1.33;0.68;;;;;;;;;;5023380;28;20100;-56
2024/01/27 13:52:57;;;;;;;2.90;0.70;;;;;;;;;;5031563;28;22000;-56
2024/01/27 13:55:23;;;;;;;1.42;0.70;;;;;;;;;;5015924;28;20052;-55
2024/01/27 13:57:48;;;;;;;1.30;0.60;;;;;;;;;;5035967;28;20033;-56
2024/01/27 14:00:13;;;;;;;1.92;1.05;;;;;;;;;;5032404;28;20067;-57
2024/01/27 14:02:40;;;;;;;3.00;0.73;;;;;;;;;;5033782;28;20049;-56
2024/01/27 14:05:05;;;;;;;2.85;1.00;;;;;;;;;;5036207;28;20689;-56
2024/01/27 14:07:31;;;;;;;1.15;0.50;;;;;;;;;;5042750;28;20946;-56
2024/01/27 14:09:56;;;;;;;1.05;0.55;;;;;;;;;;5051431;28;20075;-56
2024/01/27 14:12:22;;;;;;;1.98;0.70;;;;;;;;;;5033359;28;20075;-55
2024/01/27 14:14:49;;;;;;;2.00;0.70;;;;;;;;;;5033900;28;20099;-54
2024/01/27 14:17:14;;;;;;;1.52;0.68;;;;;;;;;;5015059;28;20542;-55
2024/01/27 14:19:40;;;;;;;1.50;0.60;;;;;;;;;;5036234;28;20461;-55
2024/01/27 14:22:06;;;;;;;2.03;0.77;;;;;;;;;;5033243;28;20090;-55
2024/01/27 14:24:38;;;;;;;2.60;0.80;;;;;;;;;;5035935;28;20052;-54
2024/01/27 14:27:04;;;;;;;1.30;0.68;;;;;;;;;;5036985;28;20099;-55
2024/01/27 14:29:36;;;;;;;3.08;0.95;;;;;;;;;;5035726;28;20283;-55
2024/01/27 14:32:02;;;;;;;1.35;0.80;;;;;;;;;;5037043;28;20037;-56
2024/01/27 14:34:28;;;;;;;2.05;0.80;;;;;;;;;;5037035;28;20044;-56
2024/01/27 14:36:54;;;;;;;2.67;1.10;;;;;;;;;;5051621;28;20056;-56
2024/01/27 14:39:20;;;;;;;2.05;0.90;;;;;;;;;;5042922;28;20045;-56
2024/01/27 14:41:45;;;;;;;2.67;1.08;;;;;;;;;;5038316;28;20088;-55
2024/01/27 14:44:11;;;;;;;1.98;1.08;;;;;;;;;;5048118;28;20037;-55
2024/01/27 14:46:39;;;;;;;1.80;1.08;;;;;;;;;;5024144;28;20128;-57
2024/01/27 14:49:07;;;;;;;2.05;1.15;;;;;;;;;;5020133;28;20021;-55
2024/01/27 14:51:33;;;;;;;2.55;1.27;;;;;;;;;;5019540;28;20056;-56
2024/01/27 14:53:58;;;;;;;2.75;1.30;;;;;;;;;;5037519;28;20041;-56
2024/01/27 14:56:23;;;;;;;3.80;1.67;;;;;;;;;;5037147;28;20504;-57
2024/01/27 14:58:51;;;;;;;2.17;1.40;;;;;;;;;;5036561;28;20075;-56
2024/01/27 15:01:16;;;;;;;2.90;1.75;;;;;;;;;;5036237;28;20102;-55
2024/01/27 15:03:42;;;;;;;3.88;2.05;;;;;;;;;;5037717;28;20048;-55
2024/01/27 15:06:07;;;;;;;3.85;2.47;;;;;;;;;;5035877;28;20151;-56
2024/01/27 15:08:32;;;;;;;5.25;2.75;;;;;;;;;;5035756;28;20022;-57
2024/01/27 15:10:58;;;;;;;4.10;2.63;;;;;;;;;;5018846;28;20116;-57
2024/01/27 15:13:24;;;;;;;6.55;3.97;;;;;;;;;;5037049;28;20029;-56
2024/01/27 15:15:50;;;;;;;5.85;3.72;;;;;;;;;;5036334;28;20387;-56